sensor_id;sensor_type;location;lat;lon;timestamp;P1;durP1;ratioP1;P2;durP2;ratioP2
34828;SDS011;21042;47.620;12.188;2023-07-20T00:00:30;15.80;;;6.22;;
34828;SDS011;21042;47.620;12.188;2023-07-20T00:03:12;11.60;;;6.45;;
34828;SDS011;21042;47.620;12.188;2023-07-20T00:05:45;8.77;;;6.05;;
34828;SDS011;21042;47.620;12.188;2023-07-20T00:10:40;11.82;;;6.57;;
34828;SDS011;21042;47.620;12.188;2023-07-20T00:13:07;11.82;;;6.22;;
34828;SDS011;21042;47.620;12.188;2023-07-20T00:15:34;11.65;;;6.25;;
34828;SDS011;21042;47.620;12.188;2023-07-20T00:18:01;13.50;;;6.72;;
34828;SDS011;21042;47.620;12.188;2023-07-20T00:20:27;9.60;;;6.28;;
34828;SDS011;21042;47.620;12.188;2023-07-20T00:22:54;13.02;;;6.07;;
34828;SDS011;21042;47.620;12.188;2023-07-20T00:25:24;11.35;;;6.35;;
34828;SDS011;21042;47.620;12.188;2023-07-20T00:30:19;14.80;;;7.03;;
34828;SDS011;21042;47.620;12.188;2023-07-20T00:32:46;13.68;;;6.38;;
34828;SDS011;21042;47.620;12.188;2023-07-20T00:35:13;10.35;;;6.15;;
34828;SDS011;21042;47.620;12.188;2023-07-20T00:37:40;9.50;;;6.35;;
34828;SDS011;21042;47.620;12.188;2023-07-20T00:40:07;14.48;;;6.93;;
34828;SDS011;21042;47.620;12.188;2023-07-20T00:42:33;10.27;;;6.90;;
34828;SDS011;21042;47.620;12.188;2023-07-20T00:45:01;10.45;;;6.22;;
34828;SDS011;21042;47.620;12.188;2023-07-20T00:49:55;11.60;;;7.28;;
34828;SDS011;21042;47.620;12.188;2023-07-20T00:52:22;13.00;;;6.80;;
34828;SDS011;21042;47.620;12.188;2023-07-20T00:54:50;11.35;;;7.45;;
34828;SDS011;21042;47.620;12.188;2023-07-20T00:57:18;11.98;;;7.35;;
34828;SDS011;21042;47.620;12.188;2023-07-20T00:59:45;13.35;;;7.68;;
34828;SDS011;21042;47.620;12.188;2023-07-20T01:02:12;12.85;;;6.93;;
34828;SDS011;21042;47.620;12.188;2023-07-20T01:04:39;17.50;;;7.38;;
34828;SDS011;21042;47.620;12.188;2023-07-20T01:07:17;14.75;;;7.40;;
34828;SDS011;21042;47.620;12.188;2023-07-20T01:10:07;11.75;;;6.68;;
34828;SDS011;21042;47.620;12.188;2023-07-20T01:12:43;10.20;;;6.75;;
34828;SDS011;21042;47.620;12.188;2023-07-20T01:15:13;10.38;;;7.00;;
34828;SDS011;21042;47.620;12.188;2023-07-20T01:17:40;9.57;;;6.20;;
34828;SDS011;21042;47.620;12.188;2023-07-20T01:20:07;10.35;;;6.82;;
34828;SDS011;21042;47.620;12.188;2023-07-20T01:23:13;15.88;;;7.00;;
34828;SDS011;21042;47.620;12.188;2023-07-20T01:31:54;12.38;;;5.70;;
34828;SDS011;21042;47.620;12.188;2023-07-20T01:34:22;14.75;;;6.65;;
34828;SDS011;21042;47.620;12.188;2023-07-20T01:36:50;12.32;;;6.13;;
34828;SDS011;21042;47.620;12.188;2023-07-20T01:39:20;8.73;;;5.53;;
34828;SDS011;21042;47.620;12.188;2023-07-20T01:41:48;10.00;;;5.78;;
34828;SDS011;21042;47.620;12.188;2023-07-20T01:44:14;10.68;;;5.53;;
34828;SDS011;21042;47.620;12.188;2023-07-20T01:46:42;10.75;;;5.88;;
34828;SDS011;21042;47.620;12.188;2023-07-20T01:49:08;9.82;;;5.47;;
34828;SDS011;21042;47.620;12.188;2023-07-20T01:51:35;11.98;;;6.40;;
34828;SDS011;21042;47.620;12.188;2023-07-20T01:54:02;11.63;;;5.63;;
34828;SDS011;21042;47.620;12.188;2023-07-20T01:56:29;13.13;;;5.97;;
34828;SDS011;21042;47.620;12.188;2023-07-20T01:58:55;15.43;;;6.45;;
34828;SDS011;21042;47.620;12.188;2023-07-20T02:01:22;8.95;;;6.20;;
34828;SDS011;21042;47.620;12.188;2023-07-20T02:03:49;10.82;;;6.18;;
34828;SDS011;21042;47.620;12.188;2023-07-20T02:06:16;12.80;;;5.32;;
34828;SDS011;21042;47.620;12.188;2023-07-20T02:08:43;10.13;;;6.22;;
34828;SDS011;21042;47.620;12.188;2023-07-20T02:11:09;13.10;;;6.53;;
34828;SDS011;21042;47.620;12.188;2023-07-20T02:13:36;11.45;;;7.95;;
34828;SDS011;21042;47.620;12.188;2023-07-20T02:16:03;10.25;;;6.60;;
34828;SDS011;21042;47.620;12.188;2023-07-20T02:18:30;8.40;;;5.75;;
34828;SDS011;21042;47.620;12.188;2023-07-20T02:20:57;13.23;;;5.68;;
34828;SDS011;21042;47.620;12.188;2023-07-20T02:23:24;9.10;;;5.60;;
34828;SDS011;21042;47.620;12.188;2023-07-20T02:25:51;9.27;;;5.13;;
34828;SDS011;21042;47.620;12.188;2023-07-20T02:28:17;7.30;;;4.70;;
34828;SDS011;21042;47.620;12.188;2023-07-20T02:30:44;10.48;;;5.57;;
34828;SDS011;21042;47.620;12.188;2023-07-20T02:33:11;7.18;;;5.03;;
34828;SDS011;21042;47.620;12.188;2023-07-20T02:35:39;8.75;;;4.57;;
34828;SDS011;21042;47.620;12.188;2023-07-20T02:38:07;8.30;;;5.47;;
34828;SDS011;21042;47.620;12.188;2023-07-20T02:40:34;10.75;;;5.63;;
34828;SDS011;21042;47.620;12.188;2023-07-20T02:43:00;11.75;;;5.72;;
34828;SDS011;21042;47.620;12.188;2023-07-20T02:45:27;11.98;;;6.00;;
34828;SDS011;21042;47.620;12.188;2023-07-20T02:47:54;8.30;;;5.00;;
34828;SDS011;21042;47.620;12.188;2023-07-20T02:50:22;11.65;;;5.43;;
34828;SDS011;21042;47.620;12.188;2023-07-20T02:52:48;9.30;;;5.05;;
34828;SDS011;21042;47.620;12.188;2023-07-20T02:55:16;8.77;;;5.68;;
34828;SDS011;21042;47.620;12.188;2023-07-20T02:57:43;9.77;;;5.25;;
34828;SDS011;21042;47.620;12.188;2023-07-20T03:00:10;10.10;;;5.47;;
34828;SDS011;21042;47.620;12.188;2023-07-20T03:02:38;9.50;;;5.35;;
34828;SDS011;21042;47.620;12.188;2023-07-20T03:07:33;8.25;;;5.00;;
34828;SDS011;21042;47.620;12.188;2023-07-20T03:10:00;8.05;;;4.95;;
34828;SDS011;21042;47.620;12.188;2023-07-20T03:12:27;7.57;;;4.82;;
34828;SDS011;21042;47.620;12.188;2023-07-20T03:14:54;7.70;;;4.88;;
34828;SDS011;21042;47.620;12.188;2023-07-20T03:17:20;9.15;;;4.97;;
34828;SDS011;21042;47.620;12.188;2023-07-20T03:19:47;8.70;;;4.65;;
34828;SDS011;21042;47.620;12.188;2023-07-20T03:22:14;10.52;;;5.65;;
34828;SDS011;21042;47.620;12.188;2023-07-20T03:24:41;10.68;;;5.03;;
34828;SDS011;21042;47.620;12.188;2023-07-20T03:27:08;6.82;;;5.07;;
34828;SDS011;21042;47.620;12.188;2023-07-20T03:29:34;11.02;;;4.85;;
34828;SDS011;21042;47.620;12.188;2023-07-20T03:32:02;7.97;;;4.82;;
34828;SDS011;21042;47.620;12.188;2023-07-20T03:34:29;8.60;;;5.18;;
34828;SDS011;21042;47.620;12.188;2023-07-20T03:36:56;10.20;;;5.70;;
34828;SDS011;21042;47.620;12.188;2023-07-20T03:39:23;12.75;;;6.18;;
34828;SDS011;21042;47.620;12.188;2023-07-20T03:41:49;10.43;;;5.35;;
34828;SDS011;21042;47.620;12.188;2023-07-20T03:44:16;8.68;;;5.18;;
34828;SDS011;21042;47.620;12.188;2023-07-20T03:46:43;14.00;;;5.95;;
34828;SDS011;21042;47.620;12.188;2023-07-20T03:51:37;11.27;;;5.43;;
34828;SDS011;21042;47.620;12.188;2023-07-20T03:54:04;10.18;;;5.97;;
34828;SDS011;21042;47.620;12.188;2023-07-20T03:56:31;12.20;;;5.40;;
34828;SDS011;21042;47.620;12.188;2023-07-20T03:59:01;10.65;;;5.57;;
34828;SDS011;21042;47.620;12.188;2023-07-20T04:01:28;9.68;;;5.47;;
34828;SDS011;21042;47.620;12.188;2023-07-20T04:03:55;11.32;;;5.20;;
34828;SDS011;21042;47.620;12.188;2023-07-20T04:06:22;7.03;;;4.93;;
34828;SDS011;21042;47.620;12.188;2023-07-20T04:11:16;7.50;;;5.10;;
34828;SDS011;21042;47.620;12.188;2023-07-20T04:13:43;9.20;;;5.40;;
34828;SDS011;21042;47.620;12.188;2023-07-20T04:16:10;8.02;;;5.28;;
34828;SDS011;21042;47.620;12.188;2023-07-20T04:18:37;10.27;;;4.70;;
34828;SDS011;21042;47.620;12.188;2023-07-20T04:21:04;8.43;;;5.25;;
34828;SDS011;21042;47.620;12.188;2023-07-20T04:23:31;9.43;;;4.80;;
34828;SDS011;21042;47.620;12.188;2023-07-20T04:25:57;9.15;;;6.05;;
34828;SDS011;21042;47.620;12.188;2023-07-20T04:28:24;12.15;;;5.43;;
34828;SDS011;21042;47.620;12.188;2023-07-20T04:30:51;10.40;;;5.05;;
34828;SDS011;21042;47.620;12.188;2023-07-20T04:33:20;8.55;;;5.55;;
34828;SDS011;21042;47.620;12.188;2023-07-20T04:38:16;10.90;;;5.95;;
34828;SDS011;21042;47.620;12.188;2023-07-20T04:40:47;11.95;;;5.35;;
34828;SDS011;21042;47.620;12.188;2023-07-20T04:43:15;7.95;;;5.32;;
34828;SDS011;21042;47.620;12.188;2023-07-20T04:45:43;9.15;;;6.50;;
34828;SDS011;21042;47.620;12.188;2023-07-20T04:48:12;10.50;;;5.82;;
34828;SDS011;21042;47.620;12.188;2023-07-20T04:50:46;10.40;;;6.78;;
34828;SDS011;21042;47.620;12.188;2023-07-20T04:53:13;6.47;;;4.53;;
34828;SDS011;21042;47.620;12.188;2023-07-20T04:55:40;11.48;;;5.50;;
34828;SDS011;21042;47.620;12.188;2023-07-20T04:58:13;7.90;;;5.25;;
34828;SDS011;21042;47.620;12.188;2023-07-20T05:00:40;9.98;;;4.47;;
34828;SDS011;21042;47.620;12.188;2023-07-20T05:03:07;9.63;;;4.40;;
34828;SDS011;21042;47.620;12.188;2023-07-20T05:05:34;9.18;;;5.10;;
34828;SDS011;21042;47.620;12.188;2023-07-20T05:08:01;6.88;;;4.40;;
34828;SDS011;21042;47.620;12.188;2023-07-20T05:10:27;12.88;;;5.93;;
34828;SDS011;21042;47.620;12.188;2023-07-20T05:12:54;8.57;;;5.43;;
34828;SDS011;21042;47.620;12.188;2023-07-20T05:15:21;10.98;;;5.80;;
34828;SDS011;21042;47.620;12.188;2023-07-20T05:17:48;10.60;;;5.43;;
34828;SDS011;21042;47.620;12.188;2023-07-20T05:20:15;7.47;;;5.07;;
34828;SDS011;21042;47.620;12.188;2023-07-20T05:22:42;9.43;;;5.45;;
34828;SDS011;21042;47.620;12.188;2023-07-20T05:25:10;9.77;;;5.32;;
34828;SDS011;21042;47.620;12.188;2023-07-20T05:27:38;7.90;;;5.15;;
34828;SDS011;21042;47.620;12.188;2023-07-20T05:30:06;6.72;;;5.15;;
34828;SDS011;21042;47.620;12.188;2023-07-20T05:32:33;10.77;;;5.78;;
34828;SDS011;21042;47.620;12.188;2023-07-20T05:35:00;14.50;;;6.55;;
34828;SDS011;21042;47.620;12.188;2023-07-20T05:37:27;11.73;;;5.82;;
34828;SDS011;21042;47.620;12.188;2023-07-20T05:39:54;8.75;;;6.03;;
34828;SDS011;21042;47.620;12.188;2023-07-20T05:42:21;14.13;;;6.72;;
34828;SDS011;21042;47.620;12.188;2023-07-20T05:44:48;12.30;;;5.55;;
34828;SDS011;21042;47.620;12.188;2023-07-20T05:47:16;11.25;;;6.03;;
34828;SDS011;21042;47.620;12.188;2023-07-20T05:49:43;11.13;;;5.70;;
34828;SDS011;21042;47.620;12.188;2023-07-20T05:52:09;13.68;;;5.93;;
34828;SDS011;21042;47.620;12.188;2023-07-20T05:54:36;7.38;;;4.97;;
34828;SDS011;21042;47.620;12.188;2023-07-20T05:57:03;19.40;;;5.40;;
34828;SDS011;21042;47.620;12.188;2023-07-20T06:01:57;8.77;;;5.30;;
34828;SDS011;21042;47.620;12.188;2023-07-20T06:04:24;8.55;;;4.25;;
34828;SDS011;21042;47.620;12.188;2023-07-20T06:06:51;12.65;;;4.45;;
34828;SDS011;21042;47.620;12.188;2023-07-20T06:09:18;8.85;;;4.57;;
34828;SDS011;21042;47.620;12.188;2023-07-20T06:11:45;9.68;;;4.97;;
34828;SDS011;21042;47.620;12.188;2023-07-20T06:14:12;10.55;;;4.30;;
34828;SDS011;21042;47.620;12.188;2023-07-20T06:16:39;8.75;;;3.95;;
34828;SDS011;21042;47.620;12.188;2023-07-20T06:19:06;10.77;;;4.47;;
34828;SDS011;21042;47.620;12.188;2023-07-20T06:21:32;7.43;;;4.00;;
34828;SDS011;21042;47.620;12.188;2023-07-20T06:23:59;8.00;;;3.95;;
34828;SDS011;21042;47.620;12.188;2023-07-20T06:26:26;6.80;;;3.92;;
34828;SDS011;21042;47.620;12.188;2023-07-20T06:28:53;7.43;;;3.90;;
34828;SDS011;21042;47.620;12.188;2023-07-20T06:31:19;11.52;;;4.13;;
34828;SDS011;21042;47.620;12.188;2023-07-20T06:33:46;13.05;;;4.38;;
34828;SDS011;21042;47.620;12.188;2023-07-20T06:36:15;7.35;;;4.20;;
34828;SDS011;21042;47.620;12.188;2023-07-20T06:38:44;4.68;;;3.30;;
34828;SDS011;21042;47.620;12.188;2023-07-20T06:41:30;8.18;;;4.00;;
34828;SDS011;21042;47.620;12.188;2023-07-20T06:44:00;8.20;;;3.65;;
34828;SDS011;21042;47.620;12.188;2023-07-20T06:46:28;12.20;;;4.18;;
34828;SDS011;21042;47.620;12.188;2023-07-20T06:48:55;5.28;;;3.10;;
34828;SDS011;21042;47.620;12.188;2023-07-20T06:51:26;9.27;;;3.25;;
34828;SDS011;21042;47.620;12.188;2023-07-20T06:53:53;7.75;;;3.45;;
34828;SDS011;21042;47.620;12.188;2023-07-20T06:56:19;6.30;;;3.53;;
34828;SDS011;21042;47.620;12.188;2023-07-20T06:58:50;5.35;;;3.38;;
34828;SDS011;21042;47.620;12.188;2023-07-20T07:01:17;5.30;;;3.20;;
34828;SDS011;21042;47.620;12.188;2023-07-20T07:03:45;6.28;;;3.22;;
34828;SDS011;21042;47.620;12.188;2023-07-20T07:06:12;9.55;;;3.25;;
34828;SDS011;21042;47.620;12.188;2023-07-20T07:08:39;7.28;;;2.38;;
34828;SDS011;21042;47.620;12.188;2023-07-20T07:11:06;5.38;;;2.47;;
34828;SDS011;21042;47.620;12.188;2023-07-20T07:13:32;6.07;;;2.90;;
34828;SDS011;21042;47.620;12.188;2023-07-20T07:16:01;3.47;;;2.40;;
34828;SDS011;21042;47.620;12.188;2023-07-20T07:18:28;4.65;;;2.80;;
34828;SDS011;21042;47.620;12.188;2023-07-20T07:20:56;5.60;;;2.33;;
34828;SDS011;21042;47.620;12.188;2023-07-20T07:23:27;8.45;;;3.00;;
34828;SDS011;21042;47.620;12.188;2023-07-20T07:25:54;4.90;;;2.72;;
34828;SDS011;21042;47.620;12.188;2023-07-20T07:28:21;5.60;;;2.92;;
34828;SDS011;21042;47.620;12.188;2023-07-20T07:30:48;8.10;;;2.70;;
34828;SDS011;21042;47.620;12.188;2023-07-20T07:33:15;13.05;;;2.83;;
34828;SDS011;21042;47.620;12.188;2023-07-20T07:35:41;6.97;;;2.15;;
34828;SDS011;21042;47.620;12.188;2023-07-20T07:38:08;9.02;;;2.38;;
34828;SDS011;21042;47.620;12.188;2023-07-20T07:40:55;9.15;;;3.00;;
34828;SDS011;21042;47.620;12.188;2023-07-20T07:43:22;7.30;;;2.65;;
34828;SDS011;21042;47.620;12.188;2023-07-20T07:45:48;5.43;;;2.78;;
34828;SDS011;21042;47.620;12.188;2023-07-20T07:48:15;3.80;;;2.22;;
34828;SDS011;21042;47.620;12.188;2023-07-20T07:50:43;2.75;;;2.13;;
34828;SDS011;21042;47.620;12.188;2023-07-20T07:53:10;6.43;;;2.55;;
34828;SDS011;21042;47.620;12.188;2023-07-20T07:55:36;3.88;;;2.20;;
34828;SDS011;21042;47.620;12.188;2023-07-20T07:58:03;4.78;;;2.35;;
34828;SDS011;21042;47.620;12.188;2023-07-20T08:00:30;6.88;;;2.35;;
34828;SDS011;21042;47.620;12.188;2023-07-20T08:02:57;3.15;;;2.28;;
34828;SDS011;21042;47.620;12.188;2023-07-20T08:07:52;6.82;;;2.33;;
34828;SDS011;21042;47.620;12.188;2023-07-20T08:10:19;7.78;;;2.22;;
34828;SDS011;21042;47.620;12.188;2023-07-20T08:12:46;6.32;;;1.98;;
34828;SDS011;21042;47.620;12.188;2023-07-20T08:15:12;5.82;;;2.25;;
34828;SDS011;21042;47.620;12.188;2023-07-20T08:17:41;6.97;;;2.50;;
34828;SDS011;21042;47.620;12.188;2023-07-20T08:20:10;12.45;;;2.90;;
34828;SDS011;21042;47.620;12.188;2023-07-20T08:22:39;7.45;;;2.20;;
34828;SDS011;21042;47.620;12.188;2023-07-20T08:27:33;7.18;;;2.38;;
34828;SDS011;21042;47.620;12.188;2023-07-20T08:30:00;5.70;;;2.10;;
34828;SDS011;21042;47.620;12.188;2023-07-20T08:32:26;4.30;;;2.83;;
34828;SDS011;21042;47.620;12.188;2023-07-20T08:34:53;5.50;;;2.33;;
34828;SDS011;21042;47.620;12.188;2023-07-20T08:37:20;7.68;;;3.03;;
34828;SDS011;21042;47.620;12.188;2023-07-20T08:39:47;3.28;;;2.25;;
34828;SDS011;21042;47.620;12.188;2023-07-20T08:42:14;3.45;;;2.22;;
34828;SDS011;21042;47.620;12.188;2023-07-20T08:47:09;7.65;;;2.45;;
34828;SDS011;21042;47.620;12.188;2023-07-20T08:49:38;3.55;;;1.88;;
34828;SDS011;21042;47.620;12.188;2023-07-20T08:52:06;7.25;;;2.67;;
34828;SDS011;21042;47.620;12.188;2023-07-20T08:54:33;6.50;;;2.42;;
34828;SDS011;21042;47.620;12.188;2023-07-20T08:57:03;5.03;;;1.92;;
34828;SDS011;21042;47.620;12.188;2023-07-20T08:59:31;4.80;;;2.55;;
34828;SDS011;21042;47.620;12.188;2023-07-20T09:01:58;13.88;;;2.47;;
34828;SDS011;21042;47.620;12.188;2023-07-20T09:04:26;4.00;;;2.25;;
34828;SDS011;21042;47.620;12.188;2023-07-20T09:06:53;8.55;;;2.20;;
34828;SDS011;21042;47.620;12.188;2023-07-20T09:09:20;5.70;;;2.15;;
34828;SDS011;21042;47.620;12.188;2023-07-20T09:14:14;6.53;;;2.00;;
34828;SDS011;21042;47.620;12.188;2023-07-20T09:19:16;6.22;;;2.63;;
34828;SDS011;21042;47.620;12.188;2023-07-20T09:21:49;5.07;;;2.40;;
34828;SDS011;21042;47.620;12.188;2023-07-20T09:24:18;2.53;;;2.15;;
34828;SDS011;21042;47.620;12.188;2023-07-20T09:26:46;10.98;;;2.65;;
34828;SDS011;21042;47.620;12.188;2023-07-20T09:29:20;4.60;;;2.38;;
34828;SDS011;21042;47.620;12.188;2023-07-20T09:32:00;6.28;;;2.30;;
34828;SDS011;21042;47.620;12.188;2023-07-20T09:34:33;4.78;;;2.15;;
34828;SDS011;21042;47.620;12.188;2023-07-20T09:37:03;4.30;;;2.13;;
34828;SDS011;21042;47.620;12.188;2023-07-20T09:39:31;3.97;;;2.35;;
34828;SDS011;21042;47.620;12.188;2023-07-20T09:42:01;3.70;;;2.10;;
34828;SDS011;21042;47.620;12.188;2023-07-20T09:44:31;4.25;;;2.35;;
34828;SDS011;21042;47.620;12.188;2023-07-20T09:47:02;3.75;;;2.20;;
34828;SDS011;21042;47.620;12.188;2023-07-20T09:49:31;5.45;;;2.50;;
34828;SDS011;21042;47.620;12.188;2023-07-20T09:52:18;5.78;;;2.70;;
34828;SDS011;21042;47.620;12.188;2023-07-20T09:54:48;4.80;;;2.40;;
34828;SDS011;21042;47.620;12.188;2023-07-20T09:57:16;6.18;;;2.20;;
34828;SDS011;21042;47.620;12.188;2023-07-20T09:59:43;6.07;;;2.67;;
34828;SDS011;21042;47.620;12.188;2023-07-20T10:02:20;5.82;;;2.58;;
34828;SDS011;21042;47.620;12.188;2023-07-20T10:04:49;4.15;;;2.30;;
34828;SDS011;21042;47.620;12.188;2023-07-20T10:07:19;3.45;;;1.92;;
34828;SDS011;21042;47.620;12.188;2023-07-20T10:09:49;6.53;;;2.60;;
34828;SDS011;21042;47.620;12.188;2023-07-20T10:12:19;4.57;;;2.75;;
34828;SDS011;21042;47.620;12.188;2023-07-20T10:14:57;3.50;;;2.30;;
34828;SDS011;21042;47.620;12.188;2023-07-20T10:17:31;4.78;;;2.08;;
34828;SDS011;21042;47.620;12.188;2023-07-20T10:19:58;4.38;;;2.28;;
34828;SDS011;21042;47.620;12.188;2023-07-20T10:22:30;3.80;;;2.15;;
34828;SDS011;21042;47.620;12.188;2023-07-20T10:25:07;6.00;;;2.47;;
34828;SDS011;21042;47.620;12.188;2023-07-20T10:27:35;4.47;;;1.88;;
34828;SDS011;21042;47.620;12.188;2023-07-20T10:32:31;7.47;;;2.70;;
34828;SDS011;21042;47.620;12.188;2023-07-20T10:34:58;4.00;;;2.30;;
34828;SDS011;21042;47.620;12.188;2023-07-20T10:40:31;3.25;;;2.38;;
34828;SDS011;21042;47.620;12.188;2023-07-20T10:43:01;5.53;;;2.55;;
34828;SDS011;21042;47.620;12.188;2023-07-20T10:45:41;4.57;;;2.05;;
34828;SDS011;21042;47.620;12.188;2023-07-20T10:48:16;5.70;;;2.13;;
34828;SDS011;21042;47.620;12.188;2023-07-20T10:50:43;5.32;;;2.28;;
34828;SDS011;21042;47.620;12.188;2023-07-20T10:53:19;3.65;;;2.33;;
34828;SDS011;21042;47.620;12.188;2023-07-20T10:55:46;4.47;;;2.22;;
34828;SDS011;21042;47.620;12.188;2023-07-20T10:58:16;3.92;;;2.00;;
34828;SDS011;21042;47.620;12.188;2023-07-20T11:01:02;3.88;;;2.28;;
34828;SDS011;21042;47.620;12.188;2023-07-20T11:03:31;6.32;;;2.15;;
34828;SDS011;21042;47.620;12.188;2023-07-20T11:09:10;5.78;;;2.38;;
34828;SDS011;21042;47.620;12.188;2023-07-20T11:11:42;4.53;;;2.00;;
34828;SDS011;21042;47.620;12.188;2023-07-20T11:14:29;3.80;;;2.05;;
34828;SDS011;21042;47.620;12.188;2023-07-20T11:17:10;8.55;;;2.25;;
34828;SDS011;21042;47.620;12.188;2023-07-20T11:19:38;5.00;;;2.00;;
34828;SDS011;21042;47.620;12.188;2023-07-20T11:22:09;6.28;;;2.28;;
34828;SDS011;21042;47.620;12.188;2023-07-20T11:24:40;7.45;;;2.63;;
34828;SDS011;21042;47.620;12.188;2023-07-20T11:27:07;3.67;;;2.08;;
34828;SDS011;21042;47.620;12.188;2023-07-20T11:29:34;9.25;;;2.13;;
34828;SDS011;21042;47.620;12.188;2023-07-20T11:32:02;9.18;;;2.70;;
34828;SDS011;21042;47.620;12.188;2023-07-20T11:34:31;5.47;;;2.20;;
34828;SDS011;21042;47.620;12.188;2023-07-20T11:36:59;6.68;;;2.30;;
34828;SDS011;21042;47.620;12.188;2023-07-20T11:39:28;6.50;;;2.35;;
34828;SDS011;21042;47.620;12.188;2023-07-20T11:41:56;5.07;;;2.40;;
34828;SDS011;21042;47.620;12.188;2023-07-20T11:44:24;2.97;;;1.95;;
34828;SDS011;21042;47.620;12.188;2023-07-20T11:52:06;5.35;;;2.40;;
34828;SDS011;21042;47.620;12.188;2023-07-20T11:54:37;5.38;;;2.38;;
34828;SDS011;21042;47.620;12.188;2023-07-20T11:57:06;3.28;;;1.90;;
34828;SDS011;21042;47.620;12.188;2023-07-20T12:02:03;8.13;;;2.25;;
34828;SDS011;21042;47.620;12.188;2023-07-20T12:04:31;5.05;;;2.40;;
34828;SDS011;21042;47.620;12.188;2023-07-20T12:06:59;5.50;;;2.30;;
34828;SDS011;21042;47.620;12.188;2023-07-20T12:12:11;5.65;;;2.55;;
34828;SDS011;21042;47.620;12.188;2023-07-20T12:14:38;6.45;;;2.78;;
34828;SDS011;21042;47.620;12.188;2023-07-20T12:17:07;8.63;;;2.42;;
34828;SDS011;21042;47.620;12.188;2023-07-20T12:19:38;4.85;;;2.10;;
34828;SDS011;21042;47.620;12.188;2023-07-20T12:22:06;2.88;;;2.30;;
34828;SDS011;21042;47.620;12.188;2023-07-20T12:24:33;5.38;;;2.00;;
34828;SDS011;21042;47.620;12.188;2023-07-20T12:27:01;8.23;;;2.80;;
34828;SDS011;21042;47.620;12.188;2023-07-20T12:29:28;5.45;;;2.17;;
34828;SDS011;21042;47.620;12.188;2023-07-20T12:31:54;6.18;;;2.22;;
34828;SDS011;21042;47.620;12.188;2023-07-20T12:34:21;3.38;;;2.63;;
34828;SDS011;21042;47.620;12.188;2023-07-20T12:36:48;3.30;;;2.10;;
34828;SDS011;21042;47.620;12.188;2023-07-20T12:39:15;3.47;;;2.05;;
34828;SDS011;21042;47.620;12.188;2023-07-20T12:41:42;4.30;;;2.05;;
34828;SDS011;21042;47.620;12.188;2023-07-20T12:44:08;4.78;;;2.35;;
34828;SDS011;21042;47.620;12.188;2023-07-20T12:46:35;4.38;;;1.88;;
34828;SDS011;21042;47.620;12.188;2023-07-20T12:49:03;4.80;;;2.83;;
34828;SDS011;21042;47.620;12.188;2023-07-20T12:51:30;7.82;;;2.50;;
34828;SDS011;21042;47.620;12.188;2023-07-20T12:53:57;3.63;;;2.38;;
34828;SDS011;21042;47.620;12.188;2023-07-20T12:56:24;5.18;;;2.05;;
34828;SDS011;21042;47.620;12.188;2023-07-20T12:58:53;8.85;;;2.58;;
34828;SDS011;21042;47.620;12.188;2023-07-20T13:01:20;6.57;;;2.67;;
34828;SDS011;21042;47.620;12.188;2023-07-20T13:03:47;6.68;;;2.28;;
34828;SDS011;21042;47.620;12.188;2023-07-20T13:06:17;4.63;;;2.38;;
34828;SDS011;21042;47.620;12.188;2023-07-20T13:08:46;5.85;;;2.30;;
34828;SDS011;21042;47.620;12.188;2023-07-20T13:11:13;10.02;;;2.35;;
34828;SDS011;21042;47.620;12.188;2023-07-20T13:13:40;5.30;;;2.28;;
34828;SDS011;21042;47.620;12.188;2023-07-20T13:16:07;4.53;;;2.70;;
34828;SDS011;21042;47.620;12.188;2023-07-20T13:18:33;3.25;;;2.08;;
34828;SDS011;21042;47.620;12.188;2023-07-20T13:21:01;6.63;;;2.38;;
34828;SDS011;21042;47.620;12.188;2023-07-20T13:23:28;6.07;;;2.50;;
34828;SDS011;21042;47.620;12.188;2023-07-20T13:25:55;4.18;;;2.53;;
34828;SDS011;21042;47.620;12.188;2023-07-20T13:28:22;5.75;;;2.53;;
34828;SDS011;21042;47.620;12.188;2023-07-20T13:30:48;5.68;;;2.65;;
34828;SDS011;21042;47.620;12.188;2023-07-20T13:33:15;3.63;;;2.92;;
34828;SDS011;21042;47.620;12.188;2023-07-20T13:35:44;5.53;;;2.45;;
34828;SDS011;21042;47.620;12.188;2023-07-20T13:38:13;8.10;;;2.88;;
34828;SDS011;21042;47.620;12.188;2023-07-20T13:40:40;4.25;;;2.78;;
34828;SDS011;21042;47.620;12.188;2023-07-20T13:43:08;6.88;;;2.70;;
34828;SDS011;21042;47.620;12.188;2023-07-20T13:45:35;3.97;;;2.63;;
34828;SDS011;21042;47.620;12.188;2023-07-20T13:48:02;7.70;;;2.75;;
34828;SDS011;21042;47.620;12.188;2023-07-20T13:50:32;9.27;;;2.97;;
34828;SDS011;21042;47.620;12.188;2023-07-20T13:53:02;7.25;;;2.85;;
34828;SDS011;21042;47.620;12.188;2023-07-20T13:55:31;3.88;;;2.60;;
34828;SDS011;21042;47.620;12.188;2023-07-20T13:58:02;7.22;;;2.53;;
34828;SDS011;21042;47.620;12.188;2023-07-20T14:00:29;6.50;;;3.25;;
34828;SDS011;21042;47.620;12.188;2023-07-20T14:03:00;10.02;;;2.70;;
34828;SDS011;21042;47.620;12.188;2023-07-20T14:05:30;4.05;;;2.60;;
34828;SDS011;21042;47.620;12.188;2023-07-20T14:08:00;5.75;;;2.85;;
34828;SDS011;21042;47.620;12.188;2023-07-20T14:10:26;6.88;;;2.85;;
34828;SDS011;21042;47.620;12.188;2023-07-20T14:12:53;6.00;;;3.05;;
34828;SDS011;21042;47.620;12.188;2023-07-20T14:15:20;4.53;;;2.50;;
34828;SDS011;21042;47.620;12.188;2023-07-20T14:17:46;6.20;;;3.03;;
34828;SDS011;21042;47.620;12.188;2023-07-20T14:20:13;3.47;;;2.78;;
34828;SDS011;21042;47.620;12.188;2023-07-20T14:22:43;6.00;;;2.83;;
34828;SDS011;21042;47.620;12.188;2023-07-20T14:25:11;5.47;;;2.95;;
34828;SDS011;21042;47.620;12.188;2023-07-20T14:27:37;6.28;;;3.00;;
34828;SDS011;21042;47.620;12.188;2023-07-20T14:30:04;4.43;;;2.60;;
34828;SDS011;21042;47.620;12.188;2023-07-20T14:32:32;5.03;;;2.95;;
34828;SDS011;21042;47.620;12.188;2023-07-20T14:35:00;6.82;;;2.63;;
34828;SDS011;21042;47.620;12.188;2023-07-20T14:39:54;5.35;;;2.58;;
34828;SDS011;21042;47.620;12.188;2023-07-20T14:42:21;5.10;;;2.80;;
34828;SDS011;21042;47.620;12.188;2023-07-20T14:44:48;8.20;;;2.78;;
34828;SDS011;21042;47.620;12.188;2023-07-20T14:47:15;4.80;;;2.60;;
34828;SDS011;21042;47.620;12.188;2023-07-20T14:49:42;5.90;;;3.15;;
34828;SDS011;21042;47.620;12.188;2023-07-20T14:52:09;4.13;;;2.58;;
34828;SDS011;21042;47.620;12.188;2023-07-20T14:54:39;5.35;;;3.22;;
34828;SDS011;21042;47.620;12.188;2023-07-20T14:57:06;5.85;;;3.38;;
34828;SDS011;21042;47.620;12.188;2023-07-20T14:59:40;4.30;;;2.80;;
34828;SDS011;21042;47.620;12.188;2023-07-20T15:02:08;2.75;;;2.45;;
34828;SDS011;21042;47.620;12.188;2023-07-20T15:04:34;6.65;;;3.28;;
34828;SDS011;21042;47.620;12.188;2023-07-20T15:07:01;6.82;;;3.17;;
34828;SDS011;21042;47.620;12.188;2023-07-20T15:09:29;7.65;;;3.28;;
34828;SDS011;21042;47.620;12.188;2023-07-20T15:11:56;10.65;;;4.95;;
34828;SDS011;21042;47.620;12.188;2023-07-20T15:14:22;4.10;;;2.50;;
34828;SDS011;21042;47.620;12.188;2023-07-20T15:16:49;6.80;;;2.83;;
34828;SDS011;21042;47.620;12.188;2023-07-20T15:19:16;4.55;;;2.78;;
34828;SDS011;21042;47.620;12.188;2023-07-20T15:24:10;4.55;;;3.10;;
34828;SDS011;21042;47.620;12.188;2023-07-20T15:26:37;7.85;;;2.85;;
34828;SDS011;21042;47.620;12.188;2023-07-20T15:29:05;8.88;;;3.10;;
34828;SDS011;21042;47.620;12.188;2023-07-20T15:31:32;8.27;;;3.30;;
34828;SDS011;21042;47.620;12.188;2023-07-20T15:34:01;5.18;;;3.00;;
34828;SDS011;21042;47.620;12.188;2023-07-20T15:36:28;4.75;;;3.53;;
34828;SDS011;21042;47.620;12.188;2023-07-20T15:38:55;9.32;;;3.15;;